createdAt,value
2019-04-16T00:00:20.535Z,53.15
2019-04-16T00:01:20.609Z,53.56
2019-04-16T00:02:20.507Z,53.25
2019-04-16T00:03:23.215Z,53.25
2019-04-16T00:04:22.311Z,53.36
2019-04-16T00:05:20.480Z,53.69
2019-04-16T00:06:20.498Z,53.56
2019-04-16T00:07:20.443Z,53.69
2019-04-16T00:08:27.587Z,53.77
2019-04-16T00:09:21.440Z,52.95
2019-04-16T00:10:20.435Z,53.28
2019-04-16T00:11:20.569Z,53.28
2019-04-16T00:12:20.437Z,54.10
2019-04-16T00:13:20.385Z,53.69
2019-04-16T00:14:20.372Z,53.08
2019-04-16T00:15:20.409Z,53.49
2019-04-16T00:16:20.413Z,53.59
2019-04-16T00:17:20.366Z,53.69
2019-04-16T00:18:20.339Z,53.28
2019-04-16T00:19:20.321Z,53.28
2019-04-16T00:20:20.310Z,53.59
2019-04-16T00:21:20.382Z,53.38
2019-04-16T00:22:20.290Z,52.84
2019-04-16T00:23:20.313Z,52.87
2019-04-16T00:24:20.262Z,53.05
2019-04-16T00:25:20.250Z,53.59
2019-04-16T00:26:20.265Z,53.38
2019-04-16T00:27:20.246Z,53.69
2019-04-16T00:28:20.241Z,53.79
2019-04-16T00:29:20.209Z,53.38
2019-04-16T00:30:20.187Z,53.69
2019-04-16T00:31:20.259Z,54.43
2019-04-16T00:32:20.199Z,54.21
2019-04-16T00:33:20.166Z,53.28
2019-04-16T00:34:20.148Z,53.17
2019-04-16T00:35:20.146Z,53.79
2019-04-16T00:36:20.125Z,54.43
2019-04-16T00:37:21.292Z,54.13
2019-04-16T00:38:22.554Z,54.23
2019-04-16T00:39:24.563Z,54.13
2019-04-16T00:40:21.077Z,54.13
2019-04-16T00:41:20.071Z,54.02
2019-04-16T00:42:20.084Z,54.33
2019-04-16T00:43:20.107Z,54.13
2019-04-16T00:44:20.044Z,53.81
2019-04-16T00:45:20.051Z,53.92
2019-04-16T00:46:20.013Z,53.92
2019-04-16T00:47:20.082Z,54.13
2019-04-16T00:48:19.999Z,54.25
2019-04-16T00:49:19.982Z,54.15
2019-04-16T00:50:20.025Z,54.02
2019-04-16T00:51:19.955Z,54.25
2019-04-16T00:52:20.632Z,54.25
2019-04-16T00:53:19.965Z,53.72
2019-04-16T00:54:19.933Z,53.72
2019-04-16T00:55:19.931Z,54.13
2019-04-16T00:56:19.921Z,53.72
2019-04-16T00:57:19.896Z,54.25
2019-04-16T00:58:20.390Z,54.36
2019-04-16T00:59:21.301Z,54.15
2019-04-16T01:00:19.896Z,54.25
2019-04-16T01:01:19.901Z,54.36
2019-04-16T01:02:19.865Z,54.15
2019-04-16T01:03:19.920Z,54.36
2019-04-16T01:04:19.811Z,54.05
2019-04-16T01:05:19.807Z,54.66
2019-04-16T01:06:19.846Z,54.90
2019-04-16T01:07:19.813Z,54.97
2019-04-16T01:08:20.239Z,54.59
2019-04-16T01:09:19.762Z,54.90
2019-04-16T01:10:19.763Z,54.69
2019-04-16T01:11:19.763Z,54.59
2019-04-16T01:12:19.750Z,54.59
2019-04-16T01:13:21.670Z,54.69
2019-04-16T01:14:19.699Z,55.30
2019-04-16T01:15:19.702Z,55.41
2019-04-16T01:16:19.766Z,55.41
2019-04-16T01:17:19.691Z,54.72
2019-04-16T01:18:19.705Z,55.41
2019-04-16T01:19:19.664Z,56.26
2019-04-16T01:20:19.678Z,54.69
2019-04-16T01:21:19.642Z,54.61
2019-04-16T01:22:19.617Z,56.13
2019-04-16T01:23:19.637Z,55.13
2019-04-16T01:24:20.211Z,56.36
2019-04-16T01:25:20.284Z,55.64
2019-04-16T01:26:19.584Z,55.74
2019-04-16T01:27:19.561Z,56.15
2019-04-16T01:28:19.620Z,56.08
2019-04-16T01:29:19.540Z,55.87
2019-04-16T01:30:19.536Z,56.18
2019-04-16T01:31:19.514Z,56.08
2019-04-16T01:32:19.533Z,55.77
2019-04-16T01:33:19.492Z,56.08
2019-04-16T01:34:19.505Z,56.29
2019-04-16T01:35:19.808Z,55.46
2019-04-16T01:36:20.290Z,55.46
2019-04-16T01:37:19.456Z,56.38
2019-04-16T01:38:19.473Z,56.49
2019-04-16T01:39:19.467Z,56.08
2019-04-16T01:40:19.441Z,55.98
2019-04-16T01:41:21.919Z,55.87
2019-04-16T01:42:23.121Z,55.77
2019-04-16T01:43:19.387Z,55.77
2019-04-16T01:44:19.412Z,55.98
2019-04-16T01:45:19.376Z,56.18
2019-04-16T01:46:19.417Z,55.15
2019-04-16T01:47:19.347Z,55.98
2019-04-16T01:48:19.333Z,54.85
2019-04-16T01:49:19.663Z,55.66
2019-04-16T01:50:19.388Z,55.36
2019-04-16T01:51:19.287Z,55.36
2019-04-16T01:52:19.679Z,55.87
2019-04-16T01:53:21.107Z,55.77
2019-04-16T01:54:22.553Z,55.57
2019-04-16T01:55:19.327Z,56.10
2019-04-16T01:56:19.244Z,56.31
2019-04-16T01:57:19.223Z,56.52
2019-04-16T01:58:19.242Z,56.21
2019-04-16T01:59:19.237Z,55.59
2019-04-16T02:00:20.141Z,55.98
2019-04-16T02:01:19.194Z,55.77
2019-04-16T02:02:19.173Z,56.08
2019-04-16T02:03:19.172Z,55.98
2019-04-16T02:04:19.838Z,55.87
2019-04-16T02:05:20.394Z,55.87
2019-04-16T02:06:19.129Z,55.46
2019-04-16T02:07:19.123Z,55.36
2019-04-16T02:08:19.111Z,55.46
2019-04-16T02:09:22.840Z,55.36
2019-04-16T02:10:19.163Z,55.36
2019-04-16T02:11:19.074Z,55.26
2019-04-16T02:12:19.102Z,55.49
2019-04-16T02:13:19.089Z,55.69
2019-04-16T02:14:22.138Z,55.49
2019-04-16T02:15:21.665Z,55.59
2019-04-16T02:16:19.209Z,56.10
2019-04-16T02:17:19.036Z,55.49
2019-04-16T02:18:19.030Z,55.80
2019-04-16T02:19:18.984Z,56.31
2019-04-16T02:20:18.970Z,55.49
2019-04-16T02:21:19.858Z,55.93
2019-04-16T02:22:18.992Z,55.80
2019-04-16T02:23:18.954Z,55.49
2019-04-16T02:24:19.455Z,56.03
2019-04-16T02:25:20.224Z,55.90
2019-04-16T02:26:20.496Z,55.82
2019-04-16T02:27:18.902Z,55.69
2019-04-16T02:28:21.424Z,56.10
2019-04-16T02:29:18.875Z,56.41
2019-04-16T02:30:18.871Z,56.03
2019-04-16T02:31:19.784Z,55.72
2019-04-16T02:32:18.843Z,56.13
2019-04-16T02:33:18.837Z,56.34
2019-04-16T02:34:18.830Z,56.57
2019-04-16T02:35:18.814Z,56.13
2019-04-16T02:36:18.860Z,56.16
2019-04-16T02:37:18.825Z,56.98
2019-04-16T02:38:18.798Z,57.39
2019-04-16T02:39:25.439Z,57.29
2019-04-16T02:40:19.761Z,56.67
2019-04-16T02:41:22.390Z,56.67
2019-04-16T02:42:18.900Z,56.34
2019-04-16T02:43:18.726Z,56.98
2019-04-16T02:44:18.754Z,56.57
2019-04-16T02:45:23.065Z,56.77
2019-04-16T02:46:18.683Z,56.98
2019-04-16T02:47:18.708Z,57.18
2019-04-16T02:48:18.663Z,57.18
2019-04-16T02:49:23.223Z,56.67
2019-04-16T02:50:19.662Z,57.09
2019-04-16T02:51:18.633Z,57.39
2019-04-16T02:52:18.664Z,56.98
2019-04-16T02:53:24.184Z,56.77
2019-04-16T02:54:19.601Z,57.11
2019-04-16T02:55:18.599Z,57.01
2019-04-16T02:56:19.252Z,57.62
2019-04-16T02:57:18.683Z,57.83
2019-04-16T02:58:19.577Z,57.73
2019-04-16T02:59:18.617Z,57.83
2019-04-16T03:00:18.616Z,58.25
2019-04-16T03:01:20.889Z,58.35
2019-04-16T03:02:22.783Z,58.04
2019-04-16T03:03:19.532Z,58.04
2019-04-16T03:04:18.492Z,58.14
2019-04-16T03:05:18.470Z,58.25
2019-04-16T03:06:18.512Z,58.27
2019-04-16T03:07:18.448Z,58.58
2019-04-16T03:08:18.656Z,58.55
2019-04-16T03:09:18.445Z,59.09
2019-04-16T03:10:18.439Z,59.09
2019-04-16T03:11:18.420Z,59.20
2019-04-16T03:12:21.025Z,58.99
2019-04-16T03:13:23.054Z,58.99
2019-04-16T03:14:19.378Z,59.09
2019-04-16T03:15:18.370Z,58.69
2019-04-16T03:16:18.362Z,59.09
2019-04-16T03:17:18.372Z,58.99
2019-04-16T03:18:18.361Z,58.48
2019-04-16T03:19:20.032Z,58.69
2019-04-16T03:20:20.868Z,58.69
2019-04-16T03:21:19.297Z,58.99
2019-04-16T03:22:18.297Z,58.99
2019-04-16T03:23:18.306Z,58.99
2019-04-16T03:24:18.268Z,59.02
2019-04-16T03:25:18.255Z,58.89
2019-04-16T03:26:18.360Z,58.99
2019-04-16T03:27:21.903Z,59.20
2019-04-16T03:28:18.253Z,58.89
2019-04-16T03:29:18.213Z,59.09
2019-04-16T03:30:18.201Z,59.23
2019-04-16T03:31:22.373Z,59.12
2019-04-16T03:32:19.185Z,59.33
2019-04-16T03:33:18.247Z,59.64
2019-04-16T03:34:19.074Z,59.33
2019-04-16T03:35:18.160Z,59.33
2019-04-16T03:36:18.137Z,59.12
2019-04-16T03:37:18.116Z,59.53
2019-04-16T03:38:18.149Z,59.12
2019-04-16T03:39:18.101Z,59.33
2019-04-16T03:40:18.910Z,59.44
2019-04-16T03:41:18.090Z,59.44
2019-04-16T03:42:18.067Z,59.23
2019-04-16T03:43:18.092Z,59.12
2019-04-16T03:44:18.050Z,59.64
2019-04-16T03:45:18.037Z,59.64
2019-04-16T03:46:18.078Z,59.77
2019-04-16T03:47:19.145Z,59.77
2019-04-16T03:48:20.600Z,59.67
2019-04-16T03:49:18.984Z,59.77
2019-04-16T03:50:17.986Z,59.88
2019-04-16T03:51:17.971Z,59.67
2019-04-16T03:52:18.016Z,59.88
2019-04-16T03:53:21.248Z,60.08
2019-04-16T03:54:18.842Z,60.08
2019-04-16T03:55:17.923Z,60.39
2019-04-16T03:56:17.915Z,60.28
2019-04-16T03:57:17.910Z,60.93
2019-04-16T03:58:17.923Z,60.31
2019-04-16T03:59:17.882Z,60.52
2019-04-16T04:00:17.906Z,60.52
2019-04-16T04:01:17.856Z,60.93
2019-04-16T04:02:21.753Z,60.63
2019-04-16T04:03:19.675Z,60.42
2019-04-16T04:04:17.827Z,60.52
2019-04-16T04:05:17.816Z,60.42
2019-04-16T04:06:17.808Z,60.52
2019-04-16T04:07:18.012Z,60.63
2019-04-16T04:08:18.711Z,60.73
2019-04-16T04:09:18.919Z,61.55
2019-04-16T04:10:30.010Z,60.96
2019-04-16T04:11:18.935Z,61.07
2019-04-16T04:12:17.729Z,61.89
2019-04-16T04:13:18.897Z,61.89
2019-04-16T04:14:22.126Z,61.38
2019-04-16T04:15:18.731Z,61.45
2019-04-16T04:16:17.688Z,61.48
2019-04-16T04:17:17.692Z,61.38
2019-04-16T04:18:17.662Z,61.48
2019-04-16T04:19:19.716Z,62.30
2019-04-16T04:20:19.126Z,61.27
2019-04-16T04:21:21.165Z,61.17
2019-04-16T04:22:17.667Z,61.27
2019-04-16T04:23:17.621Z,61.79
2019-04-16T04:24:17.629Z,61.38
2019-04-16T04:25:17.625Z,61.69
2019-04-16T04:26:17.582Z,61.58
2019-04-16T04:27:19.328Z,61.58
2019-04-16T04:28:19.732Z,61.79
2019-04-16T04:29:17.583Z,61.58
2019-04-16T04:30:17.568Z,61.99
2019-04-16T04:31:17.551Z,61.48
2019-04-16T04:32:17.517Z,61.58
2019-04-16T04:33:17.508Z,61.48
2019-04-16T04:34:17.834Z,61.58
2019-04-16T04:35:21.039Z,61.38
2019-04-16T04:36:19.345Z,61.99
2019-04-16T04:37:17.493Z,61.38
2019-04-16T04:38:17.444Z,60.96
2019-04-16T04:39:17.625Z,61.17
2019-04-16T04:40:17.695Z,62.20
2019-04-16T04:41:19.969Z,61.89
2019-04-16T04:42:19.151Z,62.17
2019-04-16T04:43:17.407Z,60.93
2019-04-16T04:44:17.444Z,61.04
2019-04-16T04:45:17.393Z,61.04
2019-04-16T04:46:17.364Z,61.14
2019-04-16T04:47:19.298Z,61.24
2019-04-16T04:48:17.347Z,60.70
2019-04-16T04:49:17.601Z,60.60
2019-04-16T04:50:17.384Z,60.49
2019-04-16T04:51:17.301Z,60.28
2019-04-16T04:52:17.287Z,60.18
2019-04-16T04:53:19.437Z,59.88
2019-04-16T04:54:21.745Z,59.74
2019-04-16T04:55:25.655Z,59.64
2019-04-16T04:56:19.272Z,59.64
2019-04-16T04:57:17.276Z,59.33
2019-04-16T04:58:17.228Z,59.44
2019-04-16T04:59:17.258Z,59.02
2019-04-16T05:00:18.187Z,59.09
2019-04-16T05:01:17.196Z,58.99
2019-04-16T05:02:17.186Z,58.48
2019-04-16T05:03:17.227Z,58.45
2019-04-16T05:04:20.402Z,58.04
2019-04-16T05:05:17.257Z,57.83
2019-04-16T05:06:17.158Z,57.93
2019-04-16T05:07:17.172Z,57.73
2019-04-16T05:08:17.119Z,57.70
2019-04-16T05:09:17.130Z,57.18
2019-04-16T05:10:17.140Z,57.32
2019-04-16T05:11:17.208Z,56.57
2019-04-16T05:12:18.083Z,56.98
2019-04-16T05:13:17.065Z,56.54
2019-04-16T05:14:17.053Z,56.34
2019-04-16T05:15:17.046Z,55.18
2019-04-16T05:16:17.057Z,55.80
2019-04-16T05:17:17.120Z,55.46
2019-04-16T05:18:17.024Z,55.90
2019-04-16T05:19:16.992Z,55.49
2019-04-16T05:20:16.992Z,55.07
2019-04-16T05:21:19.345Z,55.87
2019-04-16T05:22:20.583Z,55.26
2019-04-16T05:23:16.951Z,54.41
2019-04-16T05:24:16.992Z,54.22
2019-04-16T05:25:16.927Z,54.74
2019-04-16T05:26:17.683Z,54.85
2019-04-16T05:27:16.927Z,54.72
2019-04-16T05:28:16.917Z,54.28
2019-04-16T05:29:18.587Z,53.85
2019-04-16T05:30:19.845Z,54.28
2019-04-16T05:31:16.990Z,54.51
2019-04-16T05:32:16.850Z,54.17
2019-04-16T05:33:16.898Z,54.00
2019-04-16T05:34:18.161Z,54.38
2019-04-16T05:35:16.855Z,53.53
2019-04-16T05:36:16.853Z,53.23
2019-04-16T05:37:20.806Z,53.72
2019-04-16T05:38:16.782Z,52.44
2019-04-16T05:39:16.780Z,51.92
2019-04-16T05:40:16.762Z,51.72
2019-04-16T05:41:20.315Z,51.64
2019-04-16T05:42:26.077Z,52.07
2019-04-16T05:43:16.728Z,51.84
2019-04-16T05:44:16.738Z,52.04
2019-04-16T05:45:16.706Z,51.92
2019-04-16T05:46:16.699Z,51.53
2019-04-16T05:47:18.234Z,51.84
2019-04-16T05:48:18.560Z,51.74
2019-04-16T05:49:16.685Z,51.61
2019-04-16T05:50:16.720Z,51.72
2019-04-16T05:51:16.689Z,50.97
2019-04-16T05:52:16.653Z,51.18
2019-04-16T05:53:16.689Z,51.18
2019-04-16T05:54:16.629Z,51.72
2019-04-16T05:55:18.027Z,51.18
2019-04-16T05:56:16.610Z,50.99
2019-04-16T05:57:16.594Z,51.15
2019-04-16T05:58:19.256Z,49.88
2019-04-16T05:59:16.560Z,49.04
2019-04-16T06:00:16.545Z,48.73
2019-04-16T06:01:16.552Z,49.08
2019-04-16T06:02:18.767Z,49.69
2019-04-16T06:03:21.845Z,49.26
2019-04-16T06:04:16.647Z,49.49
2019-04-16T06:05:16.506Z,49.34
2019-04-16T06:06:16.466Z,48.11
2019-04-16T06:07:16.461Z,48.85
2019-04-16T06:08:16.478Z,48.63
2019-04-16T06:09:16.443Z,48.93
2019-04-16T06:10:17.819Z,48.11
2019-04-16T06:11:28.662Z,49.04
2019-04-16T06:12:17.405Z,49.11
2019-04-16T06:13:16.423Z,49.16
2019-04-16T06:14:17.573Z,49.47
2019-04-16T06:15:21.336Z,48.73
2019-04-16T06:16:17.410Z,48.50
2019-04-16T06:17:16.349Z,48.09
2019-04-16T06:18:18.686Z,47.99
2019-04-16T06:19:16.383Z,48.63
2019-04-16T06:20:19.909Z,49.16
2019-04-16T06:21:16.299Z,48.50
2019-04-16T06:22:16.300Z,48.38
2019-04-16T06:23:16.317Z,47.52
2019-04-16T06:24:17.202Z,47.03
2019-04-16T06:25:16.294Z,46.90
2019-04-16T06:26:17.154Z,45.57
2019-04-16T06:27:16.234Z,47.00
2019-04-16T06:28:16.225Z,47.48
2019-04-16T06:29:16.248Z,48.27
2019-04-16T06:30:16.225Z,46.80
2019-04-16T06:31:16.192Z,46.47
2019-04-16T06:32:16.178Z,45.14
2019-04-16T06:33:16.200Z,45.47
2019-04-16T06:34:16.212Z,46.26
2019-04-16T06:35:16.149Z,45.53
2019-04-16T06:36:16.241Z,47.03
2019-04-16T06:37:20.274Z,47.64
2019-04-16T06:38:16.160Z,46.29
2019-04-16T06:39:16.153Z,45.22
2019-04-16T06:40:16.139Z,45.51
2019-04-16T06:41:16.088Z,44.37
2019-04-16T06:42:21.493Z,45.08
2019-04-16T06:43:17.073Z,44.45
2019-04-16T06:44:16.057Z,42.96
2019-04-16T06:45:19.788Z,42.47
2019-04-16T06:46:16.049Z,43.44
2019-04-16T06:47:16.026Z,43.71
2019-04-16T06:48:16.036Z,43.41
2019-04-16T06:49:17.789Z,44.26
2019-04-16T06:50:29.583Z,45.20
2019-04-16T06:51:17.002Z,45.18
2019-04-16T06:52:17.368Z,45.08
2019-04-16T06:53:15.952Z,43.75
2019-04-16T06:54:15.942Z,44.53
2019-04-16T06:55:23.785Z,43.71
2019-04-16T06:56:15.923Z,44.61
2019-04-16T06:57:15.928Z,43.08
2019-04-16T06:58:17.663Z,43.08
2019-04-16T06:59:17.477Z,43.44
2019-04-16T07:00:15.992Z,45.20
2019-04-16T07:01:15.905Z,45.49
2019-04-16T07:04:06.753Z,43.63
2019-04-16T07:05:02.939Z,44.40
2019-04-16T07:06:03.911Z,43.08
2019-04-16T07:07:07.819Z,44.63
2019-04-16T07:08:03.755Z,44.00
2019-04-16T07:09:02.764Z,43.08
2019-04-16T07:10:02.737Z,43.16
2019-04-16T07:11:02.747Z,42.92
2019-04-16T07:12:02.733Z,42.39
2019-04-16T07:13:02.713Z,41.07
2019-04-16T07:14:02.677Z,42.49
2019-04-16T07:15:02.706Z,41.29
2019-04-16T07:16:02.745Z,42.43
2019-04-16T07:17:02.652Z,41.47
2019-04-16T07:18:05.397Z,41.68
2019-04-16T07:19:02.646Z,41.39
2019-04-16T07:20:04.689Z,42.74
2019-04-16T07:21:06.712Z,42.51
2019-04-16T07:22:02.593Z,41.56
2019-04-16T07:23:02.604Z,40.93
2019-04-16T07:24:02.634Z,40.64
2019-04-16T07:25:04.416Z,40.99
2019-04-16T07:26:03.846Z,41.33
2019-04-16T07:27:02.687Z,42.22
2019-04-16T07:28:02.522Z,42.98
2019-04-16T07:29:02.604Z,43.71
2019-04-16T07:30:06.745Z,43.20
2019-04-16T07:31:03.618Z,43.38
2019-04-16T07:32:02.564Z,43.49
2019-04-16T07:33:02.478Z,43.08
2019-04-16T07:34:02.490Z,42.86
2019-04-16T07:35:02.479Z,41.21
2019-04-16T07:36:02.446Z,41.52
2019-04-16T07:37:02.453Z,43.16
2019-04-16T07:38:05.127Z,42.25
2019-04-16T07:39:05.360Z,43.04
2019-04-16T07:40:02.447Z,42.45
2019-04-16T07:41:02.438Z,43.18
2019-04-16T07:42:10.768Z,42.76
2019-04-16T07:43:03.502Z,42.49
2019-04-16T07:44:08.118Z,40.95
2019-04-16T07:45:03.346Z,40.61
2019-04-16T07:46:02.324Z,40.64
2019-04-16T07:47:02.326Z,40.97
2019-04-16T07:48:05.895Z,40.97
2019-04-16T07:49:02.303Z,40.95
2019-04-16T07:50:02.555Z,40.62
2019-04-16T07:51:04.897Z,40.72
2019-04-16T07:52:07.002Z,40.84
2019-04-16T07:53:05.759Z,40.95
2019-04-16T07:54:03.227Z,41.60
2019-04-16T07:55:02.242Z,41.33
2019-04-16T07:56:02.219Z,40.50
2019-04-16T07:57:02.221Z,40.69
2019-04-16T07:58:02.209Z,40.08
2019-04-16T07:59:02.389Z,39.25
2019-04-16T08:00:02.168Z,38.32
2019-04-16T08:01:02.232Z,40.59
2019-04-16T08:02:02.466Z,40.08
2019-04-16T08:03:02.136Z,40.36
2019-04-16T08:04:03.165Z,39.96
2019-04-16T08:05:07.516Z,39.25
2019-04-16T08:06:03.116Z,39.67
2019-04-16T08:07:02.108Z,40.56
2019-04-16T08:08:02.111Z,38.48
2019-04-16T08:09:02.131Z,39.31
2019-04-16T08:10:03.214Z,39.23
2019-04-16T08:11:02.064Z,40.30
2019-04-16T08:12:02.068Z,40.81
2019-04-16T08:13:02.036Z,41.13
2019-04-16T08:14:02.061Z,40.69
2019-04-16T08:15:13.790Z,40.95
2019-04-16T08:16:03.109Z,39.92
2019-04-16T08:17:01.991Z,40.12
2019-04-16T08:18:01.982Z,38.32
2019-04-16T08:19:01.994Z,39.87
2019-04-16T08:20:01.975Z,39.55
2019-04-16T08:21:09.465Z,40.65
2019-04-16T08:22:03.034Z,39.72
2019-04-16T08:23:02.043Z,38.93
2019-04-16T08:24:02.121Z,40.52
2019-04-16T08:25:03.543Z,41.15
2019-04-16T08:26:04.291Z,40.83
2019-04-16T08:27:01.885Z,40.12
2019-04-16T08:28:01.880Z,40.70
2019-04-16T08:29:01.949Z,40.77
2019-04-16T08:30:03.435Z,38.89
2019-04-16T08:31:01.915Z,38.40
2019-04-16T08:32:01.840Z,40.04
2019-04-16T08:33:01.824Z,39.43
2019-04-16T08:34:01.850Z,39.55
2019-04-16T08:35:01.962Z,40.48
2019-04-16T08:36:01.802Z,40.89
2019-04-16T08:37:01.780Z,40.79
2019-04-16T08:38:01.762Z,40.30
2019-04-16T08:39:05.883Z,40.48
2019-04-16T08:40:02.745Z,40.02
2019-04-16T08:41:01.734Z,40.26
2019-04-16T08:42:01.901Z,40.48
2019-04-16T08:43:01.725Z,40.04
2019-04-16T08:44:03.538Z,39.11
2019-04-16T08:45:01.759Z,38.18
2019-04-16T08:46:01.679Z,38.59
2019-04-16T08:47:01.689Z,37.94
2019-04-16T08:48:01.661Z,37.40
2019-04-16T08:49:01.661Z,38.14
2019-04-16T08:50:01.672Z,37.18
2019-04-16T08:51:04.298Z,36.86
2019-04-16T08:52:01.647Z,37.18
2019-04-16T08:53:01.748Z,37.34
2019-04-16T08:54:01.605Z,36.51
2019-04-16T08:55:01.965Z,35.90
2019-04-16T08:56:01.583Z,37.25
2019-04-16T08:57:01.625Z,38.39
2019-04-16T08:58:06.050Z,38.37
2019-04-16T08:59:02.534Z,38.26
2019-04-16T09:00:06.919Z,38.87
2019-04-16T09:01:01.544Z,37.82
2019-04-16T09:02:01.517Z,38.33
2019-04-16T09:03:01.497Z,38.26
2019-04-16T09:04:02.956Z,37.99
2019-04-16T09:05:05.902Z,38.31
2019-04-16T09:06:04.334Z,37.97
2019-04-16T09:07:11.570Z,36.20
2019-04-16T09:08:12.258Z,36.04
2019-04-16T09:09:12.448Z,36.64
2019-04-16T09:10:16.551Z,36.69
2019-04-16T09:11:03.408Z,36.15
2019-04-16T09:12:01.418Z,35.88
2019-04-16T09:13:04.054Z,37.16
2019-04-16T09:14:01.388Z,37.68
2019-04-16T09:15:01.387Z,37.60
2019-04-16T09:16:01.401Z,36.66
2019-04-16T09:17:01.411Z,35.85
2019-04-16T09:18:01.372Z,37.18
2019-04-16T09:19:01.323Z,35.72
2019-04-16T09:20:04.847Z,35.38
2019-04-16T09:21:01.485Z,35.38
2019-04-16T09:22:01.319Z,34.97
2019-04-16T09:23:01.296Z,35.48
2019-04-16T09:24:06.931Z,34.76
2019-04-16T09:25:01.270Z,34.77
2019-04-16T09:26:13.540Z,35.06
2019-04-16T09:27:02.321Z,35.05
2019-04-16T09:28:01.887Z,35.05
2019-04-16T09:29:08.426Z,33.55
2019-04-16T09:30:02.232Z,32.14
2019-04-16T09:31:01.232Z,33.48
2019-04-16T09:32:01.188Z,33.95
2019-04-16T09:33:02.338Z,36.44
2019-04-16T09:34:05.561Z,37.20
2019-04-16T09:35:10.287Z,37.60
2019-04-16T09:36:02.454Z,38.19
2019-04-16T09:37:01.137Z,37.45
2019-04-16T09:38:01.122Z,36.76
2019-04-16T09:39:01.134Z,35.83
2019-04-16T09:40:01.146Z,35.82
2019-04-16T09:41:01.085Z,35.48
2019-04-16T09:42:01.418Z,34.84
2019-04-16T09:43:01.219Z,34.63
2019-04-16T09:44:01.089Z,34.69
2019-04-16T09:45:01.912Z,35.92
2019-04-16T09:46:10.273Z,36.54
2019-04-16T09:47:05.033Z,37.37
2019-04-16T09:48:02.425Z,37.57
2019-04-16T09:49:04.898Z,36.40
2019-04-16T09:50:01.066Z,35.70
2019-04-16T09:51:00.981Z,35.72
2019-04-16T09:52:03.809Z,37.38
2019-04-16T09:53:02.003Z,36.98
2019-04-16T09:54:01.010Z,36.04
2019-04-16T09:55:00.947Z,35.83
2019-04-16T09:56:00.940Z,36.44
2019-04-16T09:57:01.170Z,35.70
2019-04-16T09:58:05.976Z,34.77
2019-04-16T09:59:02.002Z,35.88
2019-04-16T10:00:00.897Z,34.92
2019-04-16T10:01:00.949Z,33.28
2019-04-16T10:02:00.937Z,34.96
2019-04-16T10:03:00.858Z,34.99
2019-04-16T10:04:00.868Z,35.48
2019-04-16T10:05:00.830Z,35.86
2019-04-16T10:06:00.862Z,34.92
2019-04-16T10:07:00.977Z,34.51
2019-04-16T10:08:00.839Z,34.29
2019-04-16T10:09:00.843Z,33.59
2019-04-16T10:10:00.810Z,34.19
2019-04-16T10:11:04.110Z,35.21
2019-04-16T10:12:04.929Z,36.15
2019-04-16T10:13:00.769Z,34.79
2019-04-16T10:14:00.814Z,33.59
2019-04-16T10:15:00.730Z,35.03
2019-04-16T10:16:00.778Z,34.29
2019-04-16T10:17:00.943Z,34.88
2019-04-16T10:18:01.499Z,33.95
2019-04-16T10:19:00.683Z,33.77
2019-04-16T10:20:00.706Z,33.84
2019-04-16T10:21:00.673Z,33.83
2019-04-16T10:22:01.255Z,34.06
2019-04-16T10:23:00.688Z,33.99
2019-04-16T10:24:00.650Z,33.59
2019-04-16T10:25:00.634Z,34.46
2019-04-16T10:26:00.720Z,33.72
2019-04-16T10:27:01.031Z,33.84
2019-04-16T10:28:01.891Z,34.24
2019-04-16T10:29:00.585Z,32.84
2019-04-16T10:30:00.577Z,33.52
2019-04-16T10:31:00.613Z,33.54
2019-04-16T10:32:00.641Z,34.89
2019-04-16T10:33:00.949Z,35.70
2019-04-16T10:34:00.593Z,34.49
2019-04-16T10:35:00.549Z,34.88
2019-04-16T10:36:01.109Z,33.54
2019-04-16T10:37:00.539Z,33.23
2019-04-16T10:38:00.539Z,33.19
2019-04-16T10:39:00.502Z,31.99
2019-04-16T10:40:00.494Z,31.05
2019-04-16T10:41:00.462Z,31.56
2019-04-16T10:42:00.454Z,32.09
2019-04-16T10:43:00.690Z,30.87
2019-04-16T10:44:01.254Z,32.24
2019-04-16T10:45:00.411Z,33.77
2019-04-16T10:46:00.402Z,34.04
2019-04-16T10:47:00.397Z,32.84
2019-04-16T10:48:00.408Z,33.77
2019-04-16T10:49:00.409Z,34.00
2019-04-16T10:50:00.375Z,33.53
2019-04-16T10:51:00.351Z,34.96
2019-04-16T10:52:00.364Z,34.92
2019-04-16T10:53:00.325Z,34.91
2019-04-16T10:54:00.345Z,33.36
2019-04-16T10:55:00.339Z,33.23
2019-04-16T10:56:00.379Z,32.85
2019-04-16T10:57:00.321Z,32.10
2019-04-16T10:58:00.276Z,32.09
2019-04-16T10:59:00.313Z,31.82
2019-04-16T11:00:00.264Z,32.84
2019-04-16T11:01:00.260Z,33.54
2019-04-16T11:02:00.293Z,32.20
2019-04-16T11:03:00.252Z,32.21
2019-04-16T11:04:00.243Z,31.83
2019-04-16T11:05:02.179Z,34.46
2019-04-16T11:06:00.220Z,32.49
2019-04-16T11:07:00.195Z,31.85
2019-04-16T11:08:00.337Z,31.82
2019-04-16T11:09:00.162Z,33.18
2019-04-16T11:10:00.187Z,33.86
2019-04-16T11:11:00.153Z,32.15
2019-04-16T11:12:04.785Z,33.15
2019-04-16T11:13:01.137Z,32.65
2019-04-16T11:14:00.703Z,32.76
2019-04-16T11:15:00.123Z,33.59
2019-04-16T11:16:00.136Z,32.85
2019-04-16T11:17:00.092Z,32.10
2019-04-16T11:18:00.079Z,32.03
2019-04-16T11:19:00.086Z,33.45
2019-04-16T11:20:00.381Z,32.21
2019-04-16T11:21:00.397Z,32.03
2019-04-16T11:22:04.033Z,32.60
2019-04-16T11:23:01.060Z,31.90
2019-04-16T11:24:00.087Z,30.98
2019-04-16T11:25:00.161Z,31.12
2019-04-16T11:25:59.993Z,31.73
2019-04-16T11:27:00.135Z,32.06
2019-04-16T11:28:00.116Z,31.95
2019-04-16T11:28:59.954Z,31.63
2019-04-16T11:30:00.031Z,33.79
2019-04-16T11:30:59.939Z,33.77
2019-04-16T11:31:59.918Z,31.92
2019-04-16T11:32:59.950Z,32.23
2019-04-16T11:33:59.945Z,33.15
2019-04-16T11:34:59.900Z,32.36
2019-04-16T11:35:59.944Z,31.98
2019-04-16T11:36:59.886Z,33.28
2019-04-16T11:37:59.852Z,33.48
2019-04-16T11:38:59.852Z,32.68
2019-04-16T11:39:59.835Z,33.77
2019-04-16T11:41:00.023Z,33.04
2019-04-16T11:41:59.835Z,31.88
2019-04-16T11:42:59.867Z,31.31
2019-04-16T11:44:14.138Z,31.63
2019-04-16T11:45:00.885Z,31.54
2019-04-16T11:45:59.886Z,31.71
2019-04-16T11:46:59.803Z,30.78
2019-04-16T11:47:59.808Z,30.67
2019-04-16T11:48:59.761Z,31.07
2019-04-16T11:49:59.739Z,32.21
2019-04-16T11:50:59.755Z,31.92
2019-04-16T11:51:59.778Z,32.33
2019-04-16T11:52:59.741Z,31.92
2019-04-16T11:53:59.707Z,32.29
2019-04-16T11:55:00.870Z,31.15
2019-04-16T11:55:59.814Z,31.15
2019-04-16T11:57:00.240Z,30.34
2019-04-16T11:57:59.689Z,30.32
2019-04-16T11:58:59.683Z,29.28
2019-04-16T12:00:07.468Z,30.73
2019-04-16T12:01:00.665Z,30.90
2019-04-16T12:01:59.679Z,29.49
2019-04-16T12:02:59.596Z,30.61
2019-04-16T12:03:59.615Z,30.47
2019-04-16T12:04:59.643Z,30.47
2019-04-16T12:05:59.585Z,32.33
2019-04-16T12:06:59.613Z,32.10
2019-04-16T12:07:59.583Z,31.80
2019-04-16T12:08:59.539Z,31.68
2019-04-16T12:09:59.585Z,30.73
2019-04-16T12:10:59.556Z,30.79
2019-04-16T12:11:59.565Z,30.14
2019-04-16T12:13:03.265Z,31.18
2019-04-16T12:13:59.533Z,30.85
2019-04-16T12:14:59.532Z,30.29
2019-04-16T12:15:59.475Z,29.10
2019-04-16T12:16:59.566Z,30.28
2019-04-16T12:17:59.445Z,29.06
2019-04-16T12:18:59.942Z,29.17
2019-04-16T12:19:59.425Z,28.98
2019-04-16T12:20:59.447Z,30.15
2019-04-16T12:21:59.422Z,31.33
2019-04-16T12:22:59.513Z,32.02
2019-04-16T12:23:59.425Z,31.57
2019-04-16T12:24:59.371Z,31.34
2019-04-16T12:25:59.372Z,30.76
2019-04-16T12:26:59.398Z,30.64
2019-04-16T12:28:01.927Z,30.91
2019-04-16T12:29:00.335Z,30.11
2019-04-16T12:29:59.349Z,30.73
2019-04-16T12:30:59.320Z,30.85
2019-04-16T12:32:03.550Z,31.37
2019-04-16T12:33:00.401Z,31.87
2019-04-16T12:33:59.401Z,31.84
2019-04-16T12:34:59.303Z,30.62
2019-04-16T12:35:59.306Z,30.38
2019-04-16T12:36:59.283Z,31.70
2019-04-16T12:37:59.286Z,31.90
2019-04-16T12:38:59.256Z,32.02
2019-04-16T12:39:59.216Z,31.50
2019-04-16T12:40:59.229Z,31.59
2019-04-16T12:42:00.196Z,30.85
2019-04-16T12:42:59.219Z,30.22
2019-04-16T12:43:59.322Z,29.30
2019-04-16T12:44:59.182Z,29.32
2019-04-16T12:45:59.251Z,30.32
2019-04-16T12:46:59.177Z,29.90
2019-04-16T12:47:59.270Z,30.11
2019-04-16T12:48:59.763Z,30.87
2019-04-16T12:49:59.141Z,30.48
2019-04-16T12:50:59.131Z,31.10
2019-04-16T12:51:59.111Z,30.12
2019-04-16T12:52:59.129Z,29.44
2019-04-16T12:54:03.255Z,30.68